createdAt,value
2023-06-29T04:41:18.529Z,2.10
2023-06-29T04:43:52.712Z,1.80
2023-06-29T04:46:20.570Z,2.38
2023-06-29T04:48:48.377Z,2.05
2023-06-29T04:51:16.444Z,2.00
2023-06-29T04:53:44.501Z,2.00
2023-06-29T04:56:12.185Z,1.70
2023-06-29T04:58:39.964Z,2.03
2023-06-29T05:01:08.161Z,1.90
2023-06-29T05:03:37.192Z,2.15
2023-06-29T05:06:05.772Z,2.03
2023-06-29T05:08:34.254Z,2.08
2023-06-29T05:11:03.164Z,2.22
2023-06-29T05:13:31.631Z,2.25
2023-06-29T05:16:04.880Z,2.60
2023-06-29T05:18:33.843Z,2.80
2023-06-29T05:21:05.119Z,2.58
2023-06-29T05:23:37.337Z,2.70
2023-06-29T05:28:33.173Z,2.55
2023-06-29T05:31:01.387Z,2.50
2023-06-29T05:33:30.170Z,2.85
2023-06-29T05:35:58.450Z,2.70
2023-06-29T05:38:27.177Z,3.15
2023-06-29T05:40:54.946Z,2.55
2023-06-29T05:43:24.123Z,3.17
2023-06-29T05:45:53.414Z,2.90
2023-06-29T05:48:21.395Z,3.45
2023-06-29T05:50:49.136Z,3.03
2023-06-29T05:53:16.990Z,2.80
2023-06-29T05:55:44.899Z,2.88
2023-06-29T05:58:12.634Z,3.17
2023-06-29T06:00:40.504Z,2.88
2023-06-29T06:03:09.546Z,3.28
2023-06-29T06:05:37.459Z,2.90
2023-06-29T06:08:10.335Z,3.05
2023-06-29T06:10:38.161Z,3.40
2023-06-29T06:13:07.251Z,3.03
2023-06-29T06:15:35.532Z,3.08
2023-06-29T06:18:03.583Z,3.50
2023-06-29T06:20:31.475Z,3.22
2023-06-29T06:22:59.405Z,3.30
2023-06-29T06:25:28.502Z,3.25
2023-06-29T06:27:56.891Z,3.90
2023-06-29T06:30:24.977Z,3.13
2023-06-29T06:32:52.807Z,2.72
2023-06-29T06:35:20.548Z,3.20
2023-06-29T06:37:49.249Z,3.47
2023-06-29T06:40:17.446Z,3.00
2023-06-29T06:42:45.386Z,3.25
2023-06-29T06:45:15.081Z,3.30
2023-06-29T06:47:43.358Z,3.60
2023-06-29T06:50:11.686Z,3.30
2023-06-29T06:52:39.878Z,3.03
2023-06-29T06:55:08.332Z,3.15
2023-06-29T06:57:36.184Z,3.00
2023-06-29T07:00:14.939Z,3.40
2023-06-29T07:02:45.812Z,3.05
2023-06-29T07:05:13.735Z,3.03
2023-06-29T07:07:41.673Z,3.03
2023-06-29T07:10:10.804Z,3.22
2023-06-29T07:12:38.680Z,2.70
2023-06-29T07:15:07.214Z,2.85
2023-06-29T07:17:40.600Z,3.15
2023-06-29T07:25:12.790Z,2.92
2023-06-29T07:27:40.894Z,3.05
2023-06-29T07:30:09.791Z,2.80
2023-06-29T07:32:37.562Z,3.17
2023-06-29T07:35:06.699Z,2.65
2023-06-29T07:37:36.168Z,2.63
2023-06-29T07:40:07.611Z,2.85
2023-06-29T07:42:40.096Z,2.40
2023-06-29T07:45:09.224Z,2.67
2023-06-29T07:47:37.286Z,2.63
2023-06-29T07:50:05.685Z,2.60
2023-06-29T07:52:33.407Z,2.70
2023-06-29T07:55:01.253Z,2.50
2023-06-29T07:59:59.952Z,2.63
2023-06-29T08:02:27.650Z,2.28
2023-06-29T08:07:26.395Z,2.00
2023-06-29T08:09:54.303Z,2.20
2023-06-29T08:12:22.177Z,2.70
2023-06-29T08:14:50.129Z,2.20
2023-06-29T08:17:18.315Z,2.33
2023-06-29T08:19:46.105Z,2.38
2023-06-29T08:22:14.015Z,2.60
2023-06-29T08:24:41.799Z,2.42
2023-06-29T08:27:10.019Z,2.30
2023-06-29T08:29:41.096Z,2.10
2023-06-29T08:32:09.880Z,1.95
2023-06-29T08:35:03.308Z,1.90
2023-06-29T08:37:31.932Z,2.00
2023-06-29T08:40:13.143Z,1.85
2023-06-29T08:42:41.007Z,2.30
2023-06-29T08:45:09.612Z,1.90
2023-06-29T08:47:39.428Z,2.00
2023-06-29T08:50:11.086Z,1.52
2023-06-29T08:52:57.641Z,2.28
2023-06-29T08:55:25.803Z,2.13
2023-06-29T08:57:55.674Z,4.65
2023-06-29T09:00:25.844Z,10.50
2023-06-29T09:02:55.484Z,27.13
2023-06-29T09:05:24.000Z,45.65
2023-06-29T09:07:52.080Z,82.78
2023-06-29T09:10:21.106Z,74.25
2023-06-29T09:12:53.946Z,70.68
2023-06-29T09:15:26.460Z,64.95
2023-06-29T09:17:57.654Z,62.58
2023-06-29T09:20:26.663Z,62.13
2023-06-29T09:22:55.307Z,58.95
2023-06-29T09:25:34.500Z,53.65
2023-06-29T09:28:17.364Z,45.10
2023-06-29T09:30:45.450Z,36.45
2023-06-29T09:33:14.352Z,24.13
2023-06-29T09:35:48.108Z,27.88
2023-06-29T09:38:18.699Z,26.92
2023-06-29T09:40:56.458Z,25.60
2023-06-29T09:43:31.809Z,22.48
2023-06-29T09:46:27.231Z,22.60
2023-06-29T09:51:28.360Z,18.33
2023-06-29T09:53:56.216Z,17.13
2023-06-29T09:56:24.311Z,15.65
2023-06-29T09:58:54.291Z,15.75
2023-06-29T10:01:22.659Z,14.13
2023-06-29T10:03:50.807Z,13.80
2023-06-29T10:06:21.490Z,13.63
2023-06-29T10:09:00.403Z,12.40
2023-06-29T10:11:30.648Z,7.38
2023-06-29T10:14:02.025Z,5.22
2023-06-29T10:16:37.213Z,6.68
2023-06-29T10:19:14.156Z,5.05
2023-06-29T10:21:44.474Z,5.68
2023-06-29T10:24:16.352Z,4.63
2023-06-29T10:26:44.543Z,4.97
2023-06-29T10:29:12.506Z,4.25
2023-06-29T10:31:47.314Z,4.22
2023-06-29T10:34:15.172Z,3.67
2023-06-29T10:36:51.642Z,3.92
2023-06-29T10:39:43.332Z,3.72
2023-06-29T10:42:15.895Z,3.15
2023-06-29T10:44:47.865Z,3.28
2023-06-29T10:47:27.983Z,3.17
2023-06-29T10:50:25.586Z,3.50
2023-06-29T10:53:00.063Z,3.03
2023-06-29T10:55:32.301Z,3.08
2023-06-29T10:58:01.124Z,2.95
2023-06-29T11:00:29.104Z,2.65
2023-06-29T11:02:57.188Z,2.65
2023-06-29T11:05:25.193Z,2.78
2023-06-29T11:07:54.195Z,2.60
2023-06-29T11:10:23.757Z,2.60
2023-06-29T11:12:52.443Z,2.47
2023-06-29T11:15:21.352Z,2.40
2023-06-29T11:17:51.773Z,1.98
2023-06-29T11:20:21.266Z,3.10
2023-06-29T11:22:49.914Z,2.45
2023-06-29T11:25:18.082Z,2.40
2023-06-29T11:27:47.893Z,2.15
2023-06-29T11:30:16.548Z,1.88
2023-06-29T11:32:45.975Z,2.20
2023-06-29T11:35:14.673Z,1.85
2023-06-29T11:37:42.696Z,1.70
2023-06-29T11:40:21.618Z,2.03
2023-06-29T11:42:50.880Z,2.10
2023-06-29T11:45:19.175Z,2.28
2023-06-29T11:47:52.543Z,2.00
2023-06-29T11:50:21.545Z,2.10
2023-06-29T11:52:49.705Z,1.90
2023-06-29T11:55:20.502Z,2.25
2023-06-29T11:57:53.052Z,1.85
2023-06-29T12:00:20.838Z,1.77
2023-06-29T12:02:51.516Z,1.70
2023-06-29T12:05:19.491Z,1.70
2023-06-29T12:07:48.658Z,1.77
2023-06-29T12:10:24.623Z,1.67
2023-06-29T12:12:57.510Z,1.67
2023-06-29T12:15:27.205Z,2.33
2023-06-29T12:18:14.231Z,1.80
2023-06-29T12:20:44.995Z,1.70
2023-06-29T12:23:15.010Z,1.90
2023-06-29T12:25:51.582Z,2.10
2023-06-29T12:28:20.169Z,1.90
2023-06-29T12:30:48.296Z,1.90
2023-06-29T12:33:17.420Z,1.60
2023-06-29T12:35:48.696Z,2.05
2023-06-29T12:38:17.001Z,1.73
2023-06-29T12:40:45.315Z,1.80
2023-06-29T12:43:13.397Z,1.90
2023-06-29T12:45:41.836Z,1.70
2023-06-29T12:48:09.769Z,1.80
2023-06-29T12:50:37.866Z,1.90
2023-06-29T12:53:05.807Z,1.77
2023-06-29T12:55:33.618Z,1.98
2023-06-29T12:58:04.693Z,1.80
2023-06-29T13:00:35.358Z,1.70
2023-06-29T13:03:09.001Z,1.55
2023-06-29T13:05:39.474Z,2.00
2023-06-29T13:08:07.592Z,2.22
2023-06-29T13:10:35.926Z,1.70
2023-06-29T13:13:05.023Z,2.25
2023-06-29T13:15:32.853Z,1.85
2023-06-29T13:18:01.129Z,1.67
2023-06-29T13:20:29.160Z,1.90
2023-06-29T13:22:57.429Z,1.73
2023-06-29T13:25:25.606Z,1.60
2023-06-29T13:27:56.364Z,1.80
2023-06-29T13:30:25.213Z,1.58
2023-06-29T13:32:53.107Z,1.55
2023-06-29T13:35:23.507Z,1.65
2023-06-29T13:37:55.096Z,1.75
2023-06-29T13:40:23.229Z,1.83
2023-06-29T13:42:51.320Z,1.77
2023-06-29T13:45:19.431Z,2.25
2023-06-29T13:47:47.606Z,1.92
2023-06-29T13:50:18.301Z,1.63
2023-06-29T13:52:48.866Z,1.60
2023-06-29T13:55:16.970Z,1.90
2023-06-29T13:57:46.144Z,1.77
2023-06-29T14:00:14.958Z,1.70
2023-06-29T14:02:43.201Z,1.52
2023-06-29T14:05:11.931Z,1.80
2023-06-29T14:07:40.388Z,1.90
2023-06-29T14:10:08.623Z,1.63
2023-06-29T14:12:36.372Z,1.63
2023-06-29T14:15:04.699Z,1.60
2023-06-29T14:17:32.607Z,1.75
2023-06-29T14:20:01.351Z,1.85
2023-06-29T14:22:29.640Z,1.85
2023-06-29T14:24:57.735Z,1.95
2023-06-29T14:27:26.386Z,1.70
2023-06-29T14:29:54.332Z,1.83
2023-06-29T14:32:23.272Z,1.60
2023-06-29T14:34:52.706Z,1.70
2023-06-29T14:37:21.053Z,1.65
2023-06-29T14:39:49.223Z,1.38
2023-06-29T14:42:18.731Z,1.85
2023-06-29T14:44:46.751Z,1.70
2023-06-29T14:47:15.107Z,1.83
2023-06-29T14:49:43.164Z,1.52
2023-06-29T14:52:11.162Z,1.90
2023-06-29T14:54:39.492Z,1.67
2023-06-29T14:57:08.323Z,1.90
2023-06-29T14:59:36.855Z,1.70
2023-06-29T15:02:05.232Z,1.52
2023-06-29T15:04:33.713Z,1.67
2023-06-29T15:07:01.529Z,1.65
2023-06-29T15:09:29.781Z,1.42
2023-06-29T15:12:01.189Z,2.20
2023-06-29T15:14:30.710Z,1.98
2023-06-29T15:16:58.591Z,1.67
2023-06-29T15:19:30.107Z,2.10
2023-06-29T15:21:59.277Z,1.85
2023-06-29T15:24:27.869Z,2.20
2023-06-29T15:26:55.794Z,2.90
2023-06-29T15:29:26.539Z,3.55
2023-06-29T15:31:55.615Z,2.83
2023-06-29T15:34:23.788Z,2.65
2023-06-29T15:36:51.780Z,2.65
2023-06-29T15:39:19.693Z,2.05
2023-06-29T15:41:51.487Z,2.35
2023-06-29T15:46:54.664Z,2.75
2023-06-29T15:49:23.264Z,2.30
2023-06-29T15:51:51.897Z,2.13
2023-06-29T15:54:22.665Z,2.42
2023-06-29T15:56:51.274Z,2.10
2023-06-29T15:59:19.347Z,2.25
2023-06-29T16:01:47.315Z,2.00
2023-06-29T16:04:17.336Z,2.00
2023-06-29T16:06:49.355Z,2.30
2023-06-29T16:09:17.256Z,2.28
2023-06-29T16:11:45.236Z,1.95
2023-06-29T16:14:18.772Z,2.17
2023-06-29T16:16:46.935Z,2.15
2023-06-29T16:19:16.696Z,2.70
2023-06-29T16:21:46.750Z,2.80
2023-06-29T16:24:14.967Z,2.72
2023-06-29T16:26:42.851Z,2.50
2023-06-29T16:29:10.798Z,2.55
2023-06-29T16:31:38.626Z,2.53
2023-06-29T16:34:06.460Z,2.15
2023-06-29T16:36:34.427Z,2.40
2023-06-29T16:39:03.207Z,2.50
2023-06-29T16:41:31.291Z,2.92
2023-06-29T16:44:02.214Z,2.60
2023-06-29T16:46:30.559Z,2.40
2023-06-29T16:49:00.945Z,2.75
2023-06-29T16:51:30.190Z,2.42
2023-06-29T16:54:01.650Z,2.22
2023-06-29T16:56:29.888Z,2.55
2023-06-29T16:58:58.135Z,2.75
2023-06-29T17:01:29.091Z,2.75
2023-06-29T17:03:57.552Z,2.83
2023-06-29T17:06:25.711Z,2.80
2023-06-29T17:08:53.664Z,2.67
2023-06-29T17:11:24.023Z,3.03
2023-06-29T17:13:52.141Z,2.80
2023-06-29T17:16:20.054Z,2.45
2023-06-29T17:18:48.105Z,3.00
2023-06-29T17:21:16.052Z,3.00
2023-06-29T17:23:43.894Z,2.45
2023-06-29T17:26:11.813Z,3.08
2023-06-29T17:28:40.609Z,3.35
2023-06-29T17:31:08.496Z,3.33
2023-06-29T17:34:19.446Z,3.85
2023-06-29T17:36:47.214Z,4.00
2023-06-29T17:39:17.456Z,3.88
2023-06-29T17:41:45.549Z,3.75
2023-06-29T17:44:15.886Z,3.65
2023-06-29T17:46:50.878Z,4.30
2023-06-29T17:49:24.640Z,4.32
2023-06-29T17:51:52.483Z,3.78
2023-06-29T17:54:20.260Z,4.25
2023-06-29T17:56:48.245Z,3.60
2023-06-29T17:59:16.001Z,3.45
2023-06-29T18:01:44.068Z,3.30
2023-06-29T18:04:14.826Z,3.50
2023-06-29T18:06:43.223Z,3.00
2023-06-29T18:09:17.857Z,3.35
2023-06-29T18:11:45.954Z,3.22
2023-06-29T18:14:13.925Z,3.17
2023-06-29T18:16:41.919Z,3.58
2023-06-29T18:19:09.920Z,3.00
2023-06-29T18:21:38.108Z,3.58
2023-06-29T18:24:07.137Z,3.33
2023-06-29T18:26:35.610Z,3.10
2023-06-29T18:29:03.853Z,3.17
2023-06-29T18:31:37.499Z,3.20
2023-06-29T18:36:57.119Z,3.50
2023-06-29T18:39:24.999Z,3.35
2023-06-29T18:42:12.145Z,3.28
2023-06-29T18:44:41.443Z,3.22
2023-06-29T18:47:12.876Z,3.10
2023-06-29T18:49:51.641Z,3.28
